createdAt,value
2023-01-25T00:00:32.035Z,2.94
2023-01-25T00:01:32.013Z,2.85
2023-01-25T00:02:32.059Z,2.95
2023-01-25T00:03:32.041Z,3.01
2023-01-25T00:04:31.954Z,3.00
2023-01-25T00:05:31.943Z,3.00
2023-01-25T00:06:31.913Z,2.93
2023-01-25T00:07:31.901Z,2.94
2023-01-25T00:08:31.875Z,2.94
2023-01-25T00:09:31.858Z,2.97
2023-01-25T00:10:31.863Z,2.97
2023-01-25T00:11:31.817Z,2.98
2023-01-25T00:12:31.802Z,3.03
2023-01-25T00:13:31.781Z,2.98
2023-01-25T00:14:31.757Z,2.98
2023-01-25T00:15:31.743Z,3.00
2023-01-25T00:16:31.772Z,2.98
2023-01-25T00:17:31.704Z,2.94
2023-01-25T00:18:31.732Z,3.00
2023-01-25T00:19:31.681Z,2.98
2023-01-25T00:20:31.645Z,2.87
2023-01-25T00:21:31.628Z,2.85
2023-01-25T00:22:31.611Z,2.80
2023-01-25T00:23:31.617Z,2.87
2023-01-25T00:24:31.567Z,2.90
2023-01-25T00:25:31.566Z,2.90
2023-01-25T00:26:31.528Z,2.97
2023-01-25T00:27:31.511Z,2.90
2023-01-25T00:28:31.494Z,2.80
2023-01-25T00:29:31.470Z,2.83
2023-01-25T00:30:31.453Z,2.83
2023-01-25T00:31:31.545Z,2.83
2023-01-25T00:32:31.537Z,2.88
2023-01-25T00:33:31.391Z,2.83
2023-01-25T00:34:31.370Z,2.94
2023-01-25T00:35:31.362Z,2.91
2023-01-25T00:36:31.335Z,2.91
2023-01-25T00:37:31.316Z,2.97
2023-01-25T00:38:31.292Z,2.90
2023-01-25T00:39:31.280Z,2.90
2023-01-25T00:40:31.259Z,2.82
2023-01-25T00:41:31.248Z,2.94
2023-01-25T00:42:31.239Z,2.88
2023-01-25T00:43:31.196Z,2.91
2023-01-25T00:44:31.175Z,2.87
2023-01-25T00:45:31.165Z,2.80
2023-01-25T00:46:31.142Z,2.76
2023-01-25T00:47:31.122Z,2.72
2023-01-25T00:48:31.140Z,2.73
2023-01-25T00:49:31.125Z,2.76
2023-01-25T00:50:31.061Z,2.79
2023-01-25T00:51:31.047Z,2.76
2023-01-25T00:52:31.044Z,2.77
2023-01-25T00:53:31.003Z,2.76
2023-01-25T00:54:30.983Z,2.79
2023-01-25T00:55:30.969Z,2.79
2023-01-25T00:56:30.946Z,2.87
2023-01-25T00:57:30.951Z,2.79
2023-01-25T00:58:30.906Z,2.83
2023-01-25T00:59:30.889Z,2.77
2023-01-25T01:00:30.889Z,2.80
2023-01-25T01:01:30.874Z,2.77
2023-01-25T01:02:30.826Z,2.76
2023-01-25T01:03:30.808Z,2.72
2023-01-25T01:04:30.822Z,2.79
2023-01-25T01:05:30.784Z,2.76
2023-01-25T01:06:30.755Z,2.80
2023-01-25T01:07:30.739Z,2.73
2023-01-25T01:08:30.709Z,2.73
2023-01-25T01:09:30.770Z,2.68
2023-01-25T01:10:30.737Z,2.77
2023-01-25T01:11:30.680Z,2.80
2023-01-25T01:12:30.686Z,2.72
2023-01-25T01:13:30.623Z,2.82
2023-01-25T01:14:30.596Z,2.72
2023-01-25T01:15:30.575Z,2.72
2023-01-25T01:16:30.564Z,2.76
2023-01-25T01:17:30.537Z,2.70
2023-01-25T01:18:30.516Z,2.65
2023-01-25T01:19:30.496Z,2.68
2023-01-25T01:20:30.474Z,2.70
2023-01-25T01:21:30.455Z,2.61
2023-01-25T01:22:30.435Z,2.59
2023-01-25T01:23:30.417Z,2.68
2023-01-25T01:24:30.458Z,2.64
2023-01-25T01:25:30.382Z,2.61
2023-01-25T01:26:30.358Z,2.65
2023-01-25T01:27:30.339Z,2.61
2023-01-25T01:28:30.320Z,2.64
2023-01-25T01:29:30.305Z,2.59
2023-01-25T01:30:30.290Z,2.61
2023-01-25T01:31:30.395Z,2.73
2023-01-25T01:32:30.366Z,2.68
2023-01-25T01:33:30.220Z,2.70
2023-01-25T01:34:30.202Z,2.65
2023-01-25T01:35:30.181Z,2.69
2023-01-25T01:36:30.159Z,2.58
2023-01-25T01:37:30.146Z,2.62
2023-01-25T01:38:30.123Z,2.64
2023-01-25T01:39:30.103Z,2.69
2023-01-25T01:40:30.084Z,2.70
2023-01-25T01:41:30.088Z,2.69
2023-01-25T01:42:30.046Z,2.65
2023-01-25T01:43:30.037Z,2.70
2023-01-25T01:44:30.026Z,2.70
2023-01-25T01:45:30.011Z,2.70
2023-01-25T01:46:29.971Z,2.62
2023-01-25T01:47:29.950Z,2.69
2023-01-25T01:48:29.926Z,2.65
2023-01-25T01:49:29.914Z,2.73
2023-01-25T01:50:29.888Z,2.55
2023-01-25T01:51:29.869Z,2.57
2023-01-25T01:52:29.847Z,2.61
2023-01-25T01:53:29.873Z,2.55
2023-01-25T01:54:29.851Z,2.55
2023-01-25T01:55:29.835Z,2.55
2023-01-25T01:56:30.045Z,2.58
2023-01-25T01:57:29.907Z,2.51
2023-01-25T01:58:29.913Z,2.55
2023-01-25T01:59:29.957Z,2.55
2023-01-25T02:00:29.751Z,2.52
2023-01-25T02:01:29.924Z,2.61
2023-01-25T02:02:29.765Z,2.57
2023-01-25T02:03:29.718Z,2.57
2023-01-25T02:04:29.646Z,2.54
2023-01-25T02:05:29.729Z,2.54
2023-01-25T02:06:29.573Z,2.58
2023-01-25T02:07:29.565Z,2.68
2023-01-25T02:08:29.543Z,2.64
2023-01-25T02:09:29.513Z,2.70
2023-01-25T02:10:29.496Z,2.55
2023-01-25T02:11:29.478Z,2.54
2023-01-25T02:12:29.459Z,2.54
2023-01-25T02:13:29.490Z,2.52
2023-01-25T02:14:29.506Z,2.44
2023-01-25T02:15:29.474Z,2.50
2023-01-25T02:16:29.497Z,2.57
2023-01-25T02:17:29.506Z,2.62
2023-01-25T02:18:29.476Z,2.52
2023-01-25T02:19:29.377Z,2.61
2023-01-25T02:20:29.321Z,2.54
2023-01-25T02:21:29.301Z,2.58
2023-01-25T02:22:29.325Z,2.64
2023-01-25T02:23:29.295Z,2.68
2023-01-25T02:24:29.295Z,2.68
2023-01-25T02:25:29.327Z,2.64
2023-01-25T02:26:29.210Z,2.76
2023-01-25T02:27:29.293Z,2.72
2023-01-25T02:28:29.273Z,2.75
2023-01-25T02:29:29.297Z,2.79
2023-01-25T02:30:29.164Z,2.76
2023-01-25T02:31:29.241Z,2.76
2023-01-25T02:32:29.147Z,2.75
2023-01-25T02:33:29.048Z,2.80
2023-01-25T02:34:29.022Z,2.75
2023-01-25T02:35:29.007Z,2.73
2023-01-25T02:36:28.989Z,2.82
2023-01-25T02:37:28.964Z,2.77
2023-01-25T02:38:28.953Z,2.72
2023-01-25T02:39:28.928Z,2.80
2023-01-25T02:40:28.906Z,2.68
2023-01-25T02:41:28.885Z,2.73
2023-01-25T02:42:28.864Z,2.76
2023-01-25T02:43:28.847Z,2.75
2023-01-25T02:44:28.836Z,2.73
2023-01-25T02:45:28.805Z,2.80
2023-01-25T02:46:28.873Z,2.69
2023-01-25T02:47:28.767Z,2.69
2023-01-25T02:48:28.757Z,2.62
2023-01-25T02:49:28.739Z,2.64
2023-01-25T02:50:28.711Z,2.62
2023-01-25T02:51:28.713Z,2.64
2023-01-25T02:52:28.670Z,2.62
2023-01-25T02:53:28.652Z,2.70
2023-01-25T02:54:28.651Z,2.57
2023-01-25T02:55:28.612Z,2.69
2023-01-25T02:56:28.611Z,2.64
2023-01-25T02:57:28.570Z,2.68
2023-01-25T02:58:28.586Z,2.55
2023-01-25T02:59:28.536Z,2.59
2023-01-25T03:00:28.518Z,2.44
2023-01-25T03:01:28.519Z,2.46
2023-01-25T03:02:28.505Z,2.50
2023-01-25T03:03:28.457Z,2.50
2023-01-25T03:04:28.439Z,2.46
2023-01-25T03:05:28.421Z,2.52
2023-01-25T03:06:28.402Z,2.44
2023-01-25T03:07:28.387Z,2.46
2023-01-25T03:08:28.367Z,2.58
2023-01-25T03:09:28.337Z,2.44
2023-01-25T03:10:28.318Z,2.59
2023-01-25T03:11:28.298Z,2.47
2023-01-25T03:12:28.279Z,2.59
2023-01-25T03:13:28.258Z,2.52
2023-01-25T03:14:28.254Z,2.57
2023-01-25T03:15:28.219Z,2.47
2023-01-25T03:16:28.243Z,2.52
2023-01-25T03:17:28.187Z,2.47
2023-01-25T03:18:28.163Z,2.44
2023-01-25T03:19:28.142Z,2.47
2023-01-25T03:20:28.121Z,2.51
2023-01-25T03:21:28.111Z,2.50
2023-01-25T03:22:28.091Z,2.47
2023-01-25T03:23:28.061Z,2.51
2023-01-25T03:24:28.118Z,2.47
2023-01-25T03:25:28.022Z,2.39
2023-01-25T03:26:28.010Z,2.52
2023-01-25T03:27:27.984Z,2.50
2023-01-25T03:28:27.963Z,2.47
2023-01-25T03:29:27.983Z,2.55
2023-01-25T03:30:27.932Z,2.44
2023-01-25T03:31:28.075Z,2.37
2023-01-25T03:32:27.964Z,2.51
2023-01-25T03:33:27.888Z,2.51
2023-01-25T03:34:27.848Z,2.52
2023-01-25T03:35:27.833Z,2.52
2023-01-25T03:36:27.856Z,2.62
2023-01-25T03:37:27.787Z,2.43
2023-01-25T03:38:27.772Z,2.43
2023-01-25T03:39:27.744Z,2.55
2023-01-25T03:40:27.733Z,2.52
2023-01-25T03:41:27.710Z,2.44
2023-01-25T03:42:27.688Z,2.46
2023-01-25T03:43:27.672Z,2.57
2023-01-25T03:44:27.660Z,2.54
2023-01-25T03:45:27.632Z,2.52
2023-01-25T03:46:27.627Z,2.36
2023-01-25T03:47:27.602Z,2.41
2023-01-25T03:48:27.567Z,2.40
2023-01-25T03:49:27.565Z,2.40
2023-01-25T03:50:27.530Z,2.51
2023-01-25T03:51:27.509Z,2.54
2023-01-25T03:52:27.503Z,2.37
2023-01-25T03:53:27.477Z,2.44
2023-01-25T03:54:27.455Z,2.57
2023-01-25T03:55:27.452Z,2.46
2023-01-25T03:56:27.412Z,2.54
2023-01-25T03:57:27.388Z,2.47
2023-01-25T03:58:27.379Z,2.44
2023-01-25T03:59:27.374Z,2.36
2023-01-25T04:00:27.337Z,2.44
2023-01-25T04:01:27.350Z,2.43
2023-01-25T04:02:27.429Z,2.43
2023-01-25T04:03:28.949Z,2.47
2023-01-25T04:04:27.290Z,2.36
2023-01-25T04:05:27.232Z,2.52
2023-01-25T04:06:27.250Z,2.51
2023-01-25T04:07:27.224Z,2.46
2023-01-25T04:08:27.227Z,2.44
2023-01-25T04:09:27.163Z,2.55
2023-01-25T04:10:27.188Z,2.46
2023-01-25T04:11:27.136Z,2.54
2023-01-25T04:12:27.126Z,2.50
2023-01-25T04:13:27.098Z,2.43
2023-01-25T04:14:42.741Z,2.44
2023-01-25T04:15:27.094Z,2.36
2023-01-25T04:16:27.048Z,2.41
2023-01-25T04:17:27.014Z,2.54
2023-01-25T04:18:27.001Z,2.51
2023-01-25T04:19:26.999Z,2.47
2023-01-25T04:20:26.999Z,2.41
2023-01-25T04:21:26.961Z,2.47
2023-01-25T04:22:27.015Z,2.43
2023-01-25T04:23:26.958Z,2.37
2023-01-25T04:24:26.942Z,2.41
2023-01-25T04:25:26.881Z,2.39
2023-01-25T04:26:26.916Z,2.37
2023-01-25T04:27:26.837Z,2.44
2023-01-25T04:28:26.781Z,2.44
2023-01-25T04:29:40.099Z,2.40
2023-01-25T04:30:26.783Z,2.37
2023-01-25T04:31:26.826Z,2.39
2023-01-25T04:32:26.829Z,2.37
2023-01-25T04:33:26.728Z,2.36
2023-01-25T04:34:26.744Z,2.36
2023-01-25T04:35:26.651Z,2.40
2023-01-25T04:36:26.619Z,2.32
2023-01-25T04:37:26.632Z,2.40
2023-01-25T04:38:26.587Z,2.22
2023-01-25T04:39:26.568Z,2.36
2023-01-25T04:40:26.557Z,2.30
2023-01-25T04:41:26.524Z,2.30
2023-01-25T04:42:26.540Z,2.28
2023-01-25T04:43:26.681Z,2.30
2023-01-25T04:44:26.469Z,2.32
2023-01-25T04:45:26.472Z,2.25
2023-01-25T04:46:26.495Z,2.26
2023-01-25T11:25:44.801Z,3.55
2023-01-25T11:26:36.020Z,3.55
2023-01-25T21:00:47.559Z,2.39
2023-01-25T21:01:47.594Z,2.40
2023-01-25T21:03:54.095Z,2.36
2023-01-25T21:04:53.660Z,2.36
2023-01-25T21:06:59.039Z,2.33
2023-01-25T21:07:58.161Z,2.39
2023-01-25T21:09:52.933Z,2.37
2023-01-25T21:10:52.877Z,2.40
2023-01-25T21:13:00.443Z,2.37
2023-01-25T21:13:59.803Z,2.40
2023-01-25T21:14:57.131Z,2.39
2023-01-25T21:15:57.151Z,2.41
2023-01-25T21:16:56.941Z,2.34
2023-01-25T21:17:59.942Z,2.39
2023-01-25T21:18:58.952Z,2.40
2023-01-25T21:19:59.086Z,2.41
2023-01-25T21:20:57.058Z,2.44
2023-01-25T21:21:56.801Z,2.40
2023-01-25T21:22:56.780Z,2.40
2023-01-25T21:23:57.063Z,2.40
2023-01-25T21:24:56.733Z,2.43
2023-01-25T21:25:56.679Z,2.41
2023-01-25T21:26:56.671Z,2.41
2023-01-25T21:27:56.697Z,2.41
2023-01-25T21:28:56.675Z,2.39
2023-01-25T21:29:56.616Z,2.40
2023-01-25T21:30:56.772Z,2.43
2023-01-25T21:31:56.625Z,2.39
2023-01-25T21:32:56.546Z,2.37
2023-01-25T21:33:56.574Z,2.39
2023-01-25T21:34:56.555Z,2.41
2023-01-25T21:35:56.488Z,2.44
2023-01-25T21:36:56.504Z,2.39
2023-01-25T21:37:56.455Z,2.40
2023-01-25T21:38:56.439Z,2.40
2023-01-25T21:39:56.406Z,2.39
2023-01-25T21:40:56.425Z,2.37
2023-01-25T21:41:56.416Z,2.41
2023-01-25T21:42:56.348Z,2.41
2023-01-25T21:43:56.424Z,2.36
2023-01-25T21:44:56.359Z,2.50
2023-01-25T21:45:56.394Z,2.36
2023-01-25T21:47:23.506Z,2.36
2023-01-25T21:47:56.261Z,2.36
2023-01-25T21:48:56.231Z,2.44
2023-01-25T21:49:56.224Z,2.37
2023-01-25T21:50:56.193Z,2.43
2023-01-25T21:51:56.182Z,2.40
2023-01-25T21:52:56.499Z,2.47
2023-01-25T21:53:56.139Z,2.37
2023-01-25T21:54:56.125Z,2.40
2023-01-25T21:55:56.090Z,2.36
2023-01-25T21:56:56.121Z,2.40
2023-01-25T21:57:56.054Z,2.40
2023-01-25T21:58:56.037Z,2.43
2023-01-25T21:59:56.023Z,2.41
2023-01-25T22:00:56.016Z,2.37
2023-01-25T22:01:55.970Z,2.43
2023-01-25T22:02:55.954Z,2.41
2023-01-25T22:03:55.931Z,2.37
2023-01-25T22:04:55.961Z,2.47
2023-01-25T22:05:55.905Z,2.37
2023-01-25T22:06:55.905Z,2.36
2023-01-25T22:07:55.844Z,2.36
2023-01-25T22:08:55.857Z,2.39
2023-01-25T22:09:55.814Z,2.37
2023-01-25T22:10:55.830Z,2.37
2023-01-25T22:11:55.775Z,2.30
2023-01-25T22:12:55.788Z,2.25
2023-01-25T22:13:55.794Z,2.26
2023-01-25T22:14:55.741Z,2.28
2023-01-25T22:15:55.741Z,2.26
2023-01-25T22:16:55.678Z,2.30
2023-01-25T22:17:55.754Z,2.33
2023-01-25T22:18:55.755Z,2.30
2023-01-25T22:19:55.615Z,2.23
2023-01-25T22:20:55.592Z,2.22
2023-01-25T22:21:55.600Z,2.28
2023-01-25T22:22:55.548Z,2.30
2023-01-25T22:23:55.574Z,2.23
2023-01-25T22:24:55.532Z,2.26
2023-01-25T22:25:55.498Z,2.28
2023-01-25T22:26:55.479Z,2.26
2023-01-25T22:27:55.491Z,2.22
2023-01-25T22:28:55.431Z,2.23
2023-01-25T22:29:55.458Z,2.26
2023-01-25T22:30:55.486Z,2.26
2023-01-25T22:31:55.406Z,2.30
2023-01-25T22:32:55.458Z,2.28
2023-01-25T22:33:55.364Z,2.23
2023-01-25T22:34:55.362Z,2.15
2023-01-25T22:35:55.339Z,2.26
2023-01-25T22:36:55.285Z,2.30
2023-01-25T22:37:55.262Z,2.33
2023-01-25T22:38:55.236Z,2.18
2023-01-25T22:39:55.224Z,2.22
2023-01-25T22:40:56.502Z,2.26
2023-01-25T22:41:55.185Z,2.28
2023-01-25T22:42:55.164Z,2.26
2023-01-25T22:43:55.132Z,2.19
2023-01-25T22:44:55.112Z,2.30
2023-01-25T22:45:55.120Z,2.28
2023-01-25T22:46:55.072Z,2.25
2023-01-25T22:47:55.161Z,2.16
2023-01-25T22:48:55.030Z,2.18
2023-01-25T22:49:55.009Z,2.23
2023-01-25T22:50:54.992Z,2.16
2023-01-25T22:51:55.002Z,2.26
2023-01-25T22:52:54.958Z,2.26
2023-01-25T22:53:54.942Z,2.18
2023-01-25T22:54:54.912Z,2.21
2023-01-25T22:55:54.902Z,2.19
2023-01-25T22:56:54.875Z,2.16
2023-01-25T22:57:54.862Z,2.15
2023-01-25T22:58:54.841Z,2.15
2023-01-25T22:59:54.826Z,2.15
2023-01-25T23:00:54.792Z,2.10
2023-01-25T23:01:54.781Z,2.08
2023-01-25T23:02:54.917Z,2.14
2023-01-25T23:03:54.736Z,2.08
2023-01-25T23:04:54.795Z,2.15
2023-01-25T23:05:54.691Z,2.14
2023-01-25T23:06:54.680Z,2.14
2023-01-25T23:07:54.657Z,2.12
2023-01-25T23:08:54.632Z,2.14
2023-01-25T23:09:54.613Z,2.15
2023-01-25T23:10:54.596Z,2.15
2023-01-25T23:11:54.577Z,2.12
2023-01-25T23:12:54.562Z,2.14
2023-01-25T23:13:54.537Z,2.15
2023-01-25T23:14:54.512Z,2.16
2023-01-25T23:15:54.515Z,2.14
2023-01-25T23:16:54.478Z,2.10
2023-01-25T23:17:54.563Z,2.10
2023-01-25T23:18:54.438Z,2.08
2023-01-25T23:19:54.449Z,2.15
2023-01-25T23:20:54.393Z,2.12
2023-01-25T23:21:54.377Z,2.04
2023-01-25T23:22:54.355Z,1.89
2023-01-25T23:23:54.440Z,1.92
2023-01-25T23:24:54.322Z,1.84
2023-01-25T23:25:54.293Z,1.88
2023-01-25T23:26:54.279Z,1.88
2023-01-25T23:27:54.266Z,1.88
2023-01-25T23:28:54.241Z,1.89
2023-01-25T23:29:54.216Z,1.92
2023-01-25T23:30:54.257Z,1.92
2023-01-25T23:31:54.295Z,1.89
2023-01-25T23:32:54.262Z,1.85
2023-01-25T23:33:54.138Z,1.93
2023-01-25T23:34:54.116Z,1.97
2023-01-25T23:35:54.093Z,1.92
2023-01-25T23:36:54.072Z,2.00
2023-01-25T23:37:54.060Z,1.89
2023-01-25T23:38:54.040Z,1.89
2023-01-25T23:39:54.020Z,2.01
2023-01-25T23:40:53.993Z,1.93
2023-01-25T23:41:53.973Z,1.97
2023-01-25T23:42:53.954Z,2.01
2023-01-25T23:43:53.945Z,2.03
2023-01-25T23:44:53.914Z,2.03
2023-01-25T23:45:53.890Z,2.07
2023-01-25T23:46:53.877Z,2.01
2023-01-25T23:47:53.851Z,2.00
2023-01-25T23:48:53.840Z,2.05
2023-01-25T23:49:53.848Z,1.98
2023-01-25T23:50:53.796Z,1.98
2023-01-25T23:51:53.775Z,2.04
2023-01-25T23:52:53.754Z,2.05
2023-01-25T23:53:53.733Z,2.01
2023-01-25T23:54:53.713Z,1.97
2023-01-25T23:55:53.697Z,2.08
2023-01-25T23:56:53.681Z,2.04
2023-01-25T23:57:53.649Z,2.12
2023-01-25T23:58:53.635Z,2.03
2023-01-25T23:59:53.611Z,2.03
